sensor_id;sensor_type;location;lat;lon;timestamp;P1;durP1;ratioP1;P2;durP2;ratioP2
12770;SDS011;6449;47.666;9.160;2023-04-10T00:02:00;8.13;;;7.13;;
12770;SDS011;6449;47.666;9.160;2023-04-10T00:06:53;9.47;;;7.90;;
12770;SDS011;6449;47.666;9.160;2023-04-10T00:11:47;9.60;;;8.53;;
12770;SDS011;6449;47.666;9.160;2023-04-10T00:16:40;11.70;;;8.83;;
12770;SDS011;6449;47.666;9.160;2023-04-10T00:21:35;10.63;;;8.87;;
12770;SDS011;6449;47.666;9.160;2023-04-10T00:26:30;9.57;;;8.27;;
12770;SDS011;6449;47.666;9.160;2023-04-10T00:31:24;9.80;;;8.77;;
12770;SDS011;6449;47.666;9.160;2023-04-10T00:36:18;9.57;;;8.40;;
12770;SDS011;6449;47.666;9.160;2023-04-10T00:41:13;9.33;;;7.83;;
12770;SDS011;6449;47.666;9.160;2023-04-10T00:46:07;9.83;;;8.20;;
12770;SDS011;6449;47.666;9.160;2023-04-10T00:51:00;9.30;;;8.30;;
12770;SDS011;6449;47.666;9.160;2023-04-10T00:55:54;10.00;;;8.43;;
12770;SDS011;6449;47.666;9.160;2023-04-10T01:00:50;9.73;;;7.80;;
12770;SDS011;6449;47.666;9.160;2023-04-10T01:05:46;10.13;;;8.27;;
12770;SDS011;6449;47.666;9.160;2023-04-10T01:10:51;10.27;;;8.07;;
12770;SDS011;6449;47.666;9.160;2023-04-10T01:16:00;9.63;;;8.17;;
12770;SDS011;6449;47.666;9.160;2023-04-10T01:20:57;12.93;;;10.17;;
12770;SDS011;6449;47.666;9.160;2023-04-10T01:25:58;10.03;;;7.83;;
12770;SDS011;6449;47.666;9.160;2023-04-10T01:30:58;10.17;;;7.77;;
12770;SDS011;6449;47.666;9.160;2023-04-10T01:35:54;8.23;;;7.10;;
12770;SDS011;6449;47.666;9.160;2023-04-10T01:40:52;9.53;;;7.77;;
12770;SDS011;6449;47.666;9.160;2023-04-10T01:45:50;10.37;;;7.97;;
12770;SDS011;6449;47.666;9.160;2023-04-10T01:57:09;10.03;;;8.33;;
12770;SDS011;6449;47.666;9.160;2023-04-10T02:02:05;9.47;;;8.17;;
12770;SDS011;6449;47.666;9.160;2023-04-10T02:07:02;8.90;;;7.90;;
12770;SDS011;6449;47.666;9.160;2023-04-10T02:12:01;8.77;;;7.57;;
12770;SDS011;6449;47.666;9.160;2023-04-10T02:17:02;10.77;;;8.53;;
12770;SDS011;6449;47.666;9.160;2023-04-10T02:21:56;12.53;;;8.80;;
12770;SDS011;6449;47.666;9.160;2023-04-10T02:26:52;12.03;;;8.03;;
12770;SDS011;6449;47.666;9.160;2023-04-10T02:31:46;14.00;;;8.27;;
12770;SDS011;6449;47.666;9.160;2023-04-10T02:36:43;12.13;;;7.53;;
12770;SDS011;6449;47.666;9.160;2023-04-10T02:41:36;13.60;;;10.10;;
12770;SDS011;6449;47.666;9.160;2023-04-10T02:46:30;11.77;;;8.53;;
12770;SDS011;6449;47.666;9.160;2023-04-10T02:51:23;11.40;;;8.40;;
12770;SDS011;6449;47.666;9.160;2023-04-10T02:56:18;10.23;;;8.20;;
12770;SDS011;6449;47.666;9.160;2023-04-10T03:01:16;12.83;;;7.97;;
12770;SDS011;6449;47.666;9.160;2023-04-10T03:06:10;10.10;;;8.13;;
12770;SDS011;6449;47.666;9.160;2023-04-10T03:11:04;9.03;;;7.53;;
12770;SDS011;6449;47.666;9.160;2023-04-10T03:16:00;8.67;;;7.37;;
12770;SDS011;6449;47.666;9.160;2023-04-10T03:20:54;9.37;;;7.40;;
12770;SDS011;6449;47.666;9.160;2023-04-10T03:25:48;8.93;;;6.97;;
12770;SDS011;6449;47.666;9.160;2023-04-10T03:30:44;9.17;;;7.67;;
12770;SDS011;6449;47.666;9.160;2023-04-10T03:35:40;8.87;;;7.43;;
12770;SDS011;6449;47.666;9.160;2023-04-10T03:40:33;11.07;;;8.60;;
12770;SDS011;6449;47.666;9.160;2023-04-10T03:45:27;10.03;;;8.00;;
12770;SDS011;6449;47.666;9.160;2023-04-10T03:50:20;9.70;;;7.90;;
12770;SDS011;6449;47.666;9.160;2023-04-10T03:55:15;9.50;;;7.57;;
12770;SDS011;6449;47.666;9.160;2023-04-10T04:00:09;10.30;;;8.07;;
12770;SDS011;6449;47.666;9.160;2023-04-10T04:05:04;8.87;;;7.40;;
12770;SDS011;6449;47.666;9.160;2023-04-10T04:09:58;8.67;;;7.43;;
12770;SDS011;6449;47.666;9.160;2023-04-10T04:14:53;11.63;;;8.43;;
12770;SDS011;6449;47.666;9.160;2023-04-10T04:19:47;8.23;;;6.93;;
12770;SDS011;6449;47.666;9.160;2023-04-10T04:24:40;8.73;;;7.43;;
12770;SDS011;6449;47.666;9.160;2023-04-10T04:29:33;9.63;;;7.83;;
12770;SDS011;6449;47.666;9.160;2023-04-10T04:34:28;9.03;;;7.50;;
12770;SDS011;6449;47.666;9.160;2023-04-10T04:39:21;10.57;;;8.47;;
12770;SDS011;6449;47.666;9.160;2023-04-10T04:44:15;11.50;;;9.07;;
12770;SDS011;6449;47.666;9.160;2023-04-10T04:49:09;10.30;;;8.60;;
12770;SDS011;6449;47.666;9.160;2023-04-10T04:54:04;10.87;;;8.17;;
12770;SDS011;6449;47.666;9.160;2023-04-10T04:58:57;9.50;;;7.53;;
12770;SDS011;6449;47.666;9.160;2023-04-10T05:03:51;9.23;;;7.43;;
12770;SDS011;6449;47.666;9.160;2023-04-10T05:08:44;10.33;;;8.17;;
12770;SDS011;6449;47.666;9.160;2023-04-10T05:13:42;9.07;;;7.63;;
12770;SDS011;6449;47.666;9.160;2023-04-10T05:18:35;9.43;;;7.60;;
12770;SDS011;6449;47.666;9.160;2023-04-10T05:23:31;12.40;;;8.03;;
12770;SDS011;6449;47.666;9.160;2023-04-10T05:28:24;11.03;;;7.67;;
12770;SDS011;6449;47.666;9.160;2023-04-10T05:33:19;10.90;;;7.93;;
12770;SDS011;6449;47.666;9.160;2023-04-10T05:38:12;11.37;;;8.17;;
12770;SDS011;6449;47.666;9.160;2023-04-10T05:43:06;10.57;;;8.20;;
12770;SDS011;6449;47.666;9.160;2023-04-10T05:47:59;10.83;;;8.50;;
12770;SDS011;6449;47.666;9.160;2023-04-10T05:52:54;14.40;;;8.60;;
12770;SDS011;6449;47.666;9.160;2023-04-10T05:57:48;12.17;;;8.40;;
12770;SDS011;6449;47.666;9.160;2023-04-10T06:02:42;14.60;;;9.33;;
12770;SDS011;6449;47.666;9.160;2023-04-10T06:07:36;8.70;;;7.80;;
12770;SDS011;6449;47.666;9.160;2023-04-10T06:12:31;10.87;;;9.03;;
12770;SDS011;6449;47.666;9.160;2023-04-10T06:17:25;12.30;;;8.77;;
12770;SDS011;6449;47.666;9.160;2023-04-10T06:22:18;9.70;;;8.53;;
12770;SDS011;6449;47.666;9.160;2023-04-10T06:27:12;11.40;;;9.37;;
12770;SDS011;6449;47.666;9.160;2023-04-10T06:37:03;12.53;;;9.77;;
12770;SDS011;6449;47.666;9.160;2023-04-10T06:41:56;13.60;;;10.07;;
12770;SDS011;6449;47.666;9.160;2023-04-10T06:46:49;12.83;;;9.97;;
12770;SDS011;6449;47.666;9.160;2023-04-10T06:51:43;12.77;;;9.83;;
12770;SDS011;6449;47.666;9.160;2023-04-10T06:56:40;12.13;;;9.63;;
12770;SDS011;6449;47.666;9.160;2023-04-10T07:01:34;15.53;;;11.00;;
12770;SDS011;6449;47.666;9.160;2023-04-10T07:06:28;13.17;;;10.23;;
12770;SDS011;6449;47.666;9.160;2023-04-10T07:11:21;12.57;;;10.10;;
12770;SDS011;6449;47.666;9.160;2023-04-10T07:16:16;12.77;;;9.90;;
12770;SDS011;6449;47.666;9.160;2023-04-10T07:21:09;10.63;;;9.27;;
12770;SDS011;6449;47.666;9.160;2023-04-10T07:31:10;10.53;;;8.73;;
12770;SDS011;6449;47.666;9.160;2023-04-10T07:36:06;11.03;;;8.73;;
12770;SDS011;6449;47.666;9.160;2023-04-10T07:41:00;10.63;;;8.90;;
12770;SDS011;6449;47.666;9.160;2023-04-10T07:45:54;11.00;;;8.63;;
12770;SDS011;6449;47.666;9.160;2023-04-10T08:06:10;7.97;;;7.17;;
12770;SDS011;6449;47.666;9.160;2023-04-10T08:11:06;9.10;;;7.20;;
12770;SDS011;6449;47.666;9.160;2023-04-10T08:16:15;8.33;;;7.00;;
12770;SDS011;6449;47.666;9.160;2023-04-10T08:21:08;8.83;;;6.87;;
12770;SDS011;6449;47.666;9.160;2023-04-10T08:26:03;9.13;;;6.63;;
12770;SDS011;6449;47.666;9.160;2023-04-10T08:30:57;7.73;;;6.50;;
12770;SDS011;6449;47.666;9.160;2023-04-10T08:35:50;7.50;;;6.70;;
12770;SDS011;6449;47.666;9.160;2023-04-10T08:40:45;8.27;;;6.63;;
12770;SDS011;6449;47.666;9.160;2023-04-10T08:45:39;8.63;;;6.90;;
12770;SDS011;6449;47.666;9.160;2023-04-10T08:50:33;7.17;;;6.47;;
12770;SDS011;6449;47.666;9.160;2023-04-10T08:55:32;7.07;;;6.10;;
12770;SDS011;6449;47.666;9.160;2023-04-10T09:00:28;7.87;;;6.60;;
12770;SDS011;6449;47.666;9.160;2023-04-10T09:05:25;11.53;;;6.17;;
12770;SDS011;6449;47.666;9.160;2023-04-10T09:10:22;7.13;;;6.33;;
12770;SDS011;6449;47.666;9.160;2023-04-10T09:15:15;6.13;;;5.53;;
12770;SDS011;6449;47.666;9.160;2023-04-10T09:20:20;6.07;;;5.47;;
12770;SDS011;6449;47.666;9.160;2023-04-10T09:25:28;6.40;;;5.43;;
12770;SDS011;6449;47.666;9.160;2023-04-10T09:30:31;5.40;;;4.90;;
12770;SDS011;6449;47.666;9.160;2023-04-10T09:35:35;5.93;;;5.20;;
12770;SDS011;6449;47.666;9.160;2023-04-10T09:40:30;5.53;;;4.40;;
12770;SDS011;6449;47.666;9.160;2023-04-10T09:45:23;4.47;;;4.07;;
12770;SDS011;6449;47.666;9.160;2023-04-10T09:50:17;4.20;;;3.80;;
12770;SDS011;6449;47.666;9.160;2023-04-10T09:55:31;3.43;;;3.13;;
12770;SDS011;6449;47.666;9.160;2023-04-10T10:00:26;3.20;;;2.80;;
12770;SDS011;6449;47.666;9.160;2023-04-10T10:05:20;3.13;;;2.83;;
12770;SDS011;6449;47.666;9.160;2023-04-10T10:10:18;3.27;;;2.40;;
12770;SDS011;6449;47.666;9.160;2023-04-10T10:15:15;2.60;;;2.40;;
12770;SDS011;6449;47.666;9.160;2023-04-10T10:20:21;4.07;;;2.50;;
12770;SDS011;6449;47.666;9.160;2023-04-10T10:25:18;2.73;;;2.53;;
12770;SDS011;6449;47.666;9.160;2023-04-10T10:30:13;2.60;;;2.40;;
12770;SDS011;6449;47.666;9.160;2023-04-10T10:35:20;3.10;;;2.80;;
12770;SDS011;6449;47.666;9.160;2023-04-10T10:40:19;3.20;;;2.90;;
12770;SDS011;6449;47.666;9.160;2023-04-10T10:45:22;2.60;;;2.40;;
12770;SDS011;6449;47.666;9.160;2023-04-10T10:50:24;2.73;;;2.50;;
12770;SDS011;6449;47.666;9.160;2023-04-10T10:55:45;2.73;;;2.50;;
12770;SDS011;6449;47.666;9.160;2023-04-10T11:06:01;2.50;;;2.30;;
12770;SDS011;6449;47.666;9.160;2023-04-10T11:10:58;2.97;;;2.30;;
12770;SDS011;6449;47.666;9.160;2023-04-10T11:15:53;2.30;;;2.10;;
12770;SDS011;6449;47.666;9.160;2023-04-10T11:26:17;2.67;;;2.47;;
12770;SDS011;6449;47.666;9.160;2023-04-10T11:31:31;2.80;;;2.43;;
12770;SDS011;6449;47.666;9.160;2023-04-10T11:36:29;2.53;;;2.33;;
12770;SDS011;6449;47.666;9.160;2023-04-10T11:41:28;3.10;;;2.50;;
12770;SDS011;6449;47.666;9.160;2023-04-10T11:46:23;1.97;;;1.77;;
12770;SDS011;6449;47.666;9.160;2023-04-10T11:51:17;2.43;;;2.20;;
12770;SDS011;6449;47.666;9.160;2023-04-10T11:56:14;1.80;;;1.70;;
12770;SDS011;6449;47.666;9.160;2023-04-10T12:01:10;1.70;;;1.40;;
12770;SDS011;6449;47.666;9.160;2023-04-10T12:06:06;1.47;;;1.37;;
12770;SDS011;6449;47.666;9.160;2023-04-10T12:11:03;1.00;;;1.00;;
12770;SDS011;6449;47.666;9.160;2023-04-10T12:15:57;1.60;;;1.50;;
12770;SDS011;6449;47.666;9.160;2023-04-10T12:20:54;1.97;;;1.40;;
12770;SDS011;6449;47.666;9.160;2023-04-10T12:25:49;1.03;;;1.03;;
12770;SDS011;6449;47.666;9.160;2023-04-10T12:30:56;0.90;;;0.90;;
12770;SDS011;6449;47.666;9.160;2023-04-10T12:35:54;1.07;;;0.93;;
12770;SDS011;6449;47.666;9.160;2023-04-10T12:40:57;0.90;;;0.90;;
12770;SDS011;6449;47.666;9.160;2023-04-10T12:45:51;0.75;;;0.75;;
12770;SDS011;6449;47.666;9.160;2023-04-10T12:50:48;0.70;;;0.70;;
12770;SDS011;6449;47.666;9.160;2023-04-10T12:55:56;0.73;;;0.73;;
12770;SDS011;6449;47.666;9.160;2023-04-10T13:01:07;0.90;;;0.90;;
12770;SDS011;6449;47.666;9.160;2023-04-10T13:06:01;1.30;;;1.20;;
12770;SDS011;6449;47.666;9.160;2023-04-10T13:10:58;0.77;;;0.77;;
12770;SDS011;6449;47.666;9.160;2023-04-10T13:15:53;1.03;;;1.03;;
12770;SDS011;6449;47.666;9.160;2023-04-10T13:20:47;0.60;;;0.60;;
12770;SDS011;6449;47.666;9.160;2023-04-10T13:25:40;0.40;;;0.40;;
12770;SDS011;6449;47.666;9.160;2023-04-10T13:30:35;0.70;;;0.70;;
12770;SDS011;6449;47.666;9.160;2023-04-10T13:35:30;0.60;;;0.60;;
12770;SDS011;6449;47.666;9.160;2023-04-10T13:40:30;0.77;;;0.75;;
12770;SDS011;6449;47.666;9.160;2023-04-10T13:45:23;0.90;;;0.90;;
12770;SDS011;6449;47.666;9.160;2023-04-10T13:50:19;1.27;;;1.17;;
12770;SDS011;6449;47.666;9.160;2023-04-10T13:55:26;0.90;;;0.90;;
12770;SDS011;6449;47.666;9.160;2023-04-10T14:00:28;0.63;;;0.63;;
12770;SDS011;6449;47.666;9.160;2023-04-10T14:05:23;0.60;;;0.60;;
12770;SDS011;6449;47.666;9.160;2023-04-10T14:10:25;3.57;;;2.97;;
12770;SDS011;6449;47.666;9.160;2023-04-10T14:15:19;1.60;;;1.33;;
12770;SDS011;6449;47.666;9.160;2023-04-10T14:20:25;5.75;;;5.20;;
12770;SDS011;6449;47.666;9.160;2023-04-10T14:26:51;6.78;;;3.13;;
12770;SDS011;6449;47.666;9.160;2023-04-10T14:32:07;1.50;;;1.40;;
12770;SDS011;6449;47.666;9.160;2023-04-10T14:49:30;1.48;;;1.38;;
12770;SDS011;6449;47.666;9.160;2023-04-10T14:54:43;1.38;;;1.27;;
12770;SDS011;6449;47.666;9.160;2023-04-10T14:59:53;1.20;;;1.10;;
12770;SDS011;6449;47.666;9.160;2023-04-10T15:04:51;1.60;;;1.45;;
12770;SDS011;6449;47.666;9.160;2023-04-10T15:09:49;1.23;;;1.13;;
12770;SDS011;6449;47.666;9.160;2023-04-10T15:14:55;1.48;;;1.33;;
12770;SDS011;6449;47.666;9.160;2023-04-10T15:19:48;1.17;;;1.08;;
12770;SDS011;6449;47.666;9.160;2023-04-10T15:24:51;1.13;;;1.02;;
12770;SDS011;6449;47.666;9.160;2023-04-10T15:29:50;1.40;;;1.30;;
12770;SDS011;6449;47.666;9.160;2023-04-10T15:34:44;1.50;;;1.40;;
12770;SDS011;6449;47.666;9.160;2023-04-10T15:39:37;1.20;;;1.10;;
12770;SDS011;6449;47.666;9.160;2023-04-10T15:44:36;1.30;;;1.20;;
12770;SDS011;6449;47.666;9.160;2023-04-10T15:49:40;1.92;;;1.25;;
12770;SDS011;6449;47.666;9.160;2023-04-10T15:54:42;1.30;;;1.20;;
12770;SDS011;6449;47.666;9.160;2023-04-10T15:59:37;1.70;;;1.60;;
12770;SDS011;6449;47.666;9.160;2023-04-10T16:04:42;2.60;;;2.40;;
12770;SDS011;6449;47.666;9.160;2023-04-10T16:09:42;1.60;;;1.50;;
12770;SDS011;6449;47.666;9.160;2023-04-10T16:20:03;1.85;;;1.75;;
12770;SDS011;6449;47.666;9.160;2023-04-10T16:24:57;2.00;;;1.90;;
12770;SDS011;6449;47.666;9.160;2023-04-10T16:30:02;1.98;;;1.88;;
12770;SDS011;6449;47.666;9.160;2023-04-10T16:35:07;1.50;;;1.40;;
12770;SDS011;6449;47.666;9.160;2023-04-10T16:40:01;7.18;;;6.43;;
12770;SDS011;6449;47.666;9.160;2023-04-10T16:45:09;3.43;;;3.13;;
12770;SDS011;6449;47.666;9.160;2023-04-10T16:50:14;2.15;;;2.00;;
12770;SDS011;6449;47.666;9.160;2023-04-10T16:55:25;2.87;;;2.57;;
12770;SDS011;6449;47.666;9.160;2023-04-10T17:13:15;3.73;;;2.37;;
12770;SDS011;6449;47.666;9.160;2023-04-10T17:18:25;1.70;;;1.60;;
12770;SDS011;6449;47.666;9.160;2023-04-10T17:23:54;1.80;;;1.70;;
12770;SDS011;6449;47.666;9.160;2023-04-10T17:29:27;2.90;;;1.73;;
12770;SDS011;6449;47.666;9.160;2023-04-10T17:41:03;3.17;;;2.87;;
12770;SDS011;6449;47.666;9.160;2023-04-10T17:46:25;6.80;;;5.10;;
12770;SDS011;6449;47.666;9.160;2023-04-10T17:52:33;6.43;;;4.47;;
12770;SDS011;6449;47.666;9.160;2023-04-10T18:04:31;6.40;;;5.20;;
12770;SDS011;6449;47.666;9.160;2023-04-10T18:09:25;10.00;;;8.43;;
12770;SDS011;6449;47.666;9.160;2023-04-10T18:14:19;10.40;;;8.53;;
12770;SDS011;6449;47.666;9.160;2023-04-10T18:19:12;10.27;;;8.37;;
12770;SDS011;6449;47.666;9.160;2023-04-10T18:24:09;7.57;;;6.00;;
12770;SDS011;6449;47.666;9.160;2023-04-10T18:29:06;5.13;;;3.67;;
12770;SDS011;6449;47.666;9.160;2023-04-10T18:34:15;4.93;;;3.40;;
12770;SDS011;6449;47.666;9.160;2023-04-10T18:39:12;5.47;;;3.30;;
12770;SDS011;6449;47.666;9.160;2023-04-10T18:44:14;4.10;;;3.23;;
12770;SDS011;6449;47.666;9.160;2023-04-10T18:49:12;3.93;;;3.53;;
12770;SDS011;6449;47.666;9.160;2023-04-10T18:54:09;5.73;;;4.40;;
12770;SDS011;6449;47.666;9.160;2023-04-10T18:59:24;5.90;;;4.50;;
12770;SDS011;6449;47.666;9.160;2023-04-10T19:04:18;8.10;;;6.30;;
12770;SDS011;6449;47.666;9.160;2023-04-10T19:09:18;5.23;;;4.30;;
12770;SDS011;6449;47.666;9.160;2023-04-10T19:14:16;8.93;;;5.47;;
12770;SDS011;6449;47.666;9.160;2023-04-10T19:19:13;7.77;;;5.30;;
12770;SDS011;6449;47.666;9.160;2023-04-10T19:24:07;10.33;;;6.57;;
12770;SDS011;6449;47.666;9.160;2023-04-10T19:29:12;7.23;;;5.20;;
12770;SDS011;6449;47.666;9.160;2023-04-10T19:34:10;8.97;;;4.90;;
12770;SDS011;6449;47.666;9.160;2023-04-10T19:39:04;4.57;;;3.70;;
12770;SDS011;6449;47.666;9.160;2023-04-10T19:44:00;5.07;;;3.73;;
12770;SDS011;6449;47.666;9.160;2023-04-10T19:48:55;4.47;;;3.80;;
12770;SDS011;6449;47.666;9.160;2023-04-10T19:53:51;5.67;;;4.60;;
12770;SDS011;6449;47.666;9.160;2023-04-10T19:58:50;6.27;;;4.33;;
12770;SDS011;6449;47.666;9.160;2023-04-10T20:03:43;4.57;;;4.10;;
12770;SDS011;6449;47.666;9.160;2023-04-10T20:08:39;4.43;;;4.03;;
12770;SDS011;6449;47.666;9.160;2023-04-10T20:13:36;4.20;;;3.80;;
12770;SDS011;6449;47.666;9.160;2023-04-10T20:18:37;6.10;;;4.23;;
12770;SDS011;6449;47.666;9.160;2023-04-10T20:23:34;4.50;;;4.00;;
12770;SDS011;6449;47.666;9.160;2023-04-10T20:28:28;4.93;;;4.43;;
12770;SDS011;6449;47.666;9.160;2023-04-10T20:33:22;5.67;;;5.17;;
12770;SDS011;6449;47.666;9.160;2023-04-10T20:38:17;6.90;;;6.20;;
12770;SDS011;6449;47.666;9.160;2023-04-10T20:43:12;6.67;;;5.97;;
12770;SDS011;6449;47.666;9.160;2023-04-10T20:48:16;7.53;;;6.67;;
12770;SDS011;6449;47.666;9.160;2023-04-10T20:59:54;9.60;;;6.40;;
12770;SDS011;6449;47.666;9.160;2023-04-10T21:04:48;7.60;;;6.53;;
12770;SDS011;6449;47.666;9.160;2023-04-10T21:09:51;10.33;;;6.20;;
12770;SDS011;6449;47.666;9.160;2023-04-10T21:15:01;6.80;;;5.77;;
12770;SDS011;6449;47.666;9.160;2023-04-10T21:19:57;4.90;;;4.40;;
12770;SDS011;6449;47.666;9.160;2023-04-10T21:25:05;4.50;;;4.10;;
12770;SDS011;6449;47.666;9.160;2023-04-10T21:30:02;4.63;;;3.97;;
12770;SDS011;6449;47.666;9.160;2023-04-10T21:34:57;4.47;;;4.07;;
12770;SDS011;6449;47.666;9.160;2023-04-10T21:39:50;6.10;;;3.60;;
12770;SDS011;6449;47.666;9.160;2023-04-10T21:44:44;4.20;;;3.60;;
12770;SDS011;6449;47.666;9.160;2023-04-10T21:49:39;3.73;;;3.43;;
12770;SDS011;6449;47.666;9.160;2023-04-10T21:54:32;4.17;;;3.73;;
12770;SDS011;6449;47.666;9.160;2023-04-10T21:59:25;3.90;;;3.60;;
12770;SDS011;6449;47.666;9.160;2023-04-10T22:04:21;4.07;;;3.17;;
12770;SDS011;6449;47.666;9.160;2023-04-10T22:09:16;3.07;;;2.87;;
12770;SDS011;6449;47.666;9.160;2023-04-10T22:14:10;3.70;;;3.20;;
12770;SDS011;6449;47.666;9.160;2023-04-10T22:19:08;3.60;;;3.10;;
12770;SDS011;6449;47.666;9.160;2023-04-10T22:24:02;3.20;;;2.90;;
12770;SDS011;6449;47.666;9.160;2023-04-10T22:28:57;3.53;;;2.70;;
12770;SDS011;6449;47.666;9.160;2023-04-10T22:33:51;3.40;;;3.00;;
12770;SDS011;6449;47.666;9.160;2023-04-10T22:38:47;3.93;;;3.53;;
12770;SDS011;6449;47.666;9.160;2023-04-10T22:43:40;3.30;;;3.00;;
12770;SDS011;6449;47.666;9.160;2023-04-10T22:48:35;3.70;;;3.07;;
12770;SDS011;6449;47.666;9.160;2023-04-10T22:53:28;3.67;;;3.30;;
12770;SDS011;6449;47.666;9.160;2023-04-10T22:58:21;3.70;;;3.30;;
12770;SDS011;6449;47.666;9.160;2023-04-10T23:03:15;3.03;;;2.83;;
12770;SDS011;6449;47.666;9.160;2023-04-10T23:08:10;3.40;;;3.10;;
12770;SDS011;6449;47.666;9.160;2023-04-10T23:13:03;3.47;;;3.17;;
12770;SDS011;6449;47.666;9.160;2023-04-10T23:17:56;3.07;;;2.80;;
12770;SDS011;6449;47.666;9.160;2023-04-10T23:22:50;3.60;;;3.30;;
12770;SDS011;6449;47.666;9.160;2023-04-10T23:27:45;3.20;;;3.00;;
12770;SDS011;6449;47.666;9.160;2023-04-10T23:32:39;3.90;;;3.13;;
12770;SDS011;6449;47.666;9.160;2023-04-10T23:37:32;4.70;;;3.47;;
12770;SDS011;6449;47.666;9.160;2023-04-10T23:42:26;3.10;;;2.90;;
12770;SDS011;6449;47.666;9.160;2023-04-10T23:47:21;4.07;;;3.53;;
12770;SDS011;6449;47.666;9.160;2023-04-10T23:52:14;3.47;;;3.17;;
12770;SDS011;6449;47.666;9.160;2023-04-10T23:57:07;3.80;;;3.03;;
